sensor_id;sensor_type;location;lat;lon;timestamp;P1;durP1;ratioP1;P2;durP2;ratioP2
27979;SDS011;15315;50.836;4.430;2024-03-17T00:08:51;11.70;;;5.93;;
27979;SDS011;15315;50.836;4.430;2024-03-17T00:18:52;11.35;;;5.47;;
27979;SDS011;15315;50.836;4.430;2024-03-17T00:28:52;10.00;;;5.05;;
27979;SDS011;15315;50.836;4.430;2024-03-17T00:38:53;9.07;;;5.03;;
27979;SDS011;15315;50.836;4.430;2024-03-17T00:48:53;11.18;;;5.00;;
27979;SDS011;15315;50.836;4.430;2024-03-17T00:58:54;13.47;;;5.57;;
27979;SDS011;15315;50.836;4.430;2024-03-17T01:08:54;13.20;;;5.13;;
27979;SDS011;15315;50.836;4.430;2024-03-17T01:18:55;19.45;;;5.72;;
27979;SDS011;15315;50.836;4.430;2024-03-17T01:28:55;12.50;;;5.78;;
27979;SDS011;15315;50.836;4.430;2024-03-17T01:38:55;10.02;;;4.90;;
27979;SDS011;15315;50.836;4.430;2024-03-17T01:48:56;11.07;;;5.40;;
27979;SDS011;15315;50.836;4.430;2024-03-17T01:58:57;10.73;;;5.22;;
27979;SDS011;15315;50.836;4.430;2024-03-17T02:08:58;9.77;;;4.80;;
27979;SDS011;15315;50.836;4.430;2024-03-17T02:18:58;7.88;;;4.45;;
27979;SDS011;15315;50.836;4.430;2024-03-17T02:28:59;10.18;;;4.60;;
27979;SDS011;15315;50.836;4.430;2024-03-17T02:38:59;10.77;;;5.07;;
27979;SDS011;15315;50.836;4.430;2024-03-17T02:49:19;11.30;;;4.90;;
27979;SDS011;15315;50.836;4.430;2024-03-17T02:59:19;11.50;;;4.60;;
27979;SDS011;15315;50.836;4.430;2024-03-17T03:09:19;7.65;;;4.10;;
27979;SDS011;15315;50.836;4.430;2024-03-17T03:19:31;8.75;;;4.43;;
27979;SDS011;15315;50.836;4.430;2024-03-17T03:29:31;10.18;;;4.93;;
27979;SDS011;15315;50.836;4.430;2024-03-17T03:39:31;9.57;;;5.22;;
27979;SDS011;15315;50.836;4.430;2024-03-17T03:49:32;12.93;;;5.57;;
27979;SDS011;15315;50.836;4.430;2024-03-17T03:59:33;11.98;;;5.95;;
27979;SDS011;15315;50.836;4.430;2024-03-17T04:09:34;11.35;;;5.32;;
27979;SDS011;15315;50.836;4.430;2024-03-17T04:19:35;12.35;;;6.03;;
27979;SDS011;15315;50.836;4.430;2024-03-17T04:29:36;11.32;;;5.82;;
27979;SDS011;15315;50.836;4.430;2024-03-17T04:39:36;11.20;;;6.07;;
27979;SDS011;15315;50.836;4.430;2024-03-17T04:49:38;13.77;;;6.93;;
27979;SDS011;15315;50.836;4.430;2024-03-17T04:59:39;11.68;;;5.85;;
27979;SDS011;15315;50.836;4.430;2024-03-17T05:09:40;13.27;;;5.53;;
27979;SDS011;15315;50.836;4.430;2024-03-17T05:19:40;15.15;;;6.25;;
27979;SDS011;15315;50.836;4.430;2024-03-17T05:29:41;7.90;;;5.28;;
27979;SDS011;15315;50.836;4.430;2024-03-17T05:39:41;10.13;;;5.35;;
27979;SDS011;15315;50.836;4.430;2024-03-17T05:49:41;14.52;;;5.68;;
27979;SDS011;15315;50.836;4.430;2024-03-17T05:59:42;11.48;;;5.88;;
27979;SDS011;15315;50.836;4.430;2024-03-17T06:09:42;11.27;;;5.25;;
27979;SDS011;15315;50.836;4.430;2024-03-17T06:19:43;13.95;;;5.32;;
27979;SDS011;15315;50.836;4.430;2024-03-17T06:29:43;13.65;;;6.13;;
27979;SDS011;15315;50.836;4.430;2024-03-17T06:39:45;9.40;;;5.72;;
27979;SDS011;15315;50.836;4.430;2024-03-17T06:49:46;13.43;;;5.15;;
27979;SDS011;15315;50.836;4.430;2024-03-17T06:59:47;11.77;;;5.53;;
27979;SDS011;15315;50.836;4.430;2024-03-17T07:09:48;12.52;;;4.72;;
27979;SDS011;15315;50.836;4.430;2024-03-17T07:19:48;7.40;;;4.35;;
27979;SDS011;15315;50.836;4.430;2024-03-17T07:29:49;10.23;;;4.35;;
27979;SDS011;15315;50.836;4.430;2024-03-17T07:39:49;11.27;;;4.22;;
27979;SDS011;15315;50.836;4.430;2024-03-17T07:49:50;7.97;;;3.67;;
27979;SDS011;15315;50.836;4.430;2024-03-17T07:59:50;10.27;;;4.93;;
27979;SDS011;15315;50.836;4.430;2024-03-17T08:09:54;9.65;;;3.38;;
27979;SDS011;15315;50.836;4.430;2024-03-17T08:19:54;11.35;;;3.50;;
27979;SDS011;15315;50.836;4.430;2024-03-17T08:29:55;6.43;;;3.15;;
27979;SDS011;15315;50.836;4.430;2024-03-17T08:39:55;7.47;;;3.20;;
27979;SDS011;15315;50.836;4.430;2024-03-17T08:49:55;7.80;;;3.30;;
27979;SDS011;15315;50.836;4.430;2024-03-17T08:59:56;7.80;;;3.50;;
27979;SDS011;15315;50.836;4.430;2024-03-17T09:09:56;6.50;;;2.97;;
27979;SDS011;15315;50.836;4.430;2024-03-17T09:19:57;7.05;;;3.35;;
27979;SDS011;15315;50.836;4.430;2024-03-17T09:29:57;7.07;;;3.22;;
27979;SDS011;15315;50.836;4.430;2024-03-17T09:39:58;9.68;;;3.05;;
27979;SDS011;15315;50.836;4.430;2024-03-17T09:50:04;7.63;;;2.90;;
27979;SDS011;15315;50.836;4.430;2024-03-17T10:00:09;8.65;;;2.53;;
27979;SDS011;15315;50.836;4.430;2024-03-17T10:10:13;12.65;;;3.45;;
27979;SDS011;15315;50.836;4.430;2024-03-17T10:20:15;4.30;;;2.92;;
27979;SDS011;15315;50.836;4.430;2024-03-17T10:30:17;8.45;;;2.92;;
27979;SDS011;15315;50.836;4.430;2024-03-17T10:40:19;10.77;;;3.67;;
27979;SDS011;15315;50.836;4.430;2024-03-17T10:50:22;8.25;;;2.92;;
27979;SDS011;15315;50.836;4.430;2024-03-17T11:00:26;9.05;;;2.72;;
27979;SDS011;15315;50.836;4.430;2024-03-17T11:10:31;8.68;;;3.03;;
27979;SDS011;15315;50.836;4.430;2024-03-17T11:20:35;13.52;;;3.10;;
27979;SDS011;15315;50.836;4.430;2024-03-17T11:30:45;9.18;;;2.90;;
27979;SDS011;15315;50.836;4.430;2024-03-17T11:41:30;9.50;;;2.70;;
27979;SDS011;15315;50.836;4.430;2024-03-17T11:51:34;5.63;;;2.20;;
27979;SDS011;15315;50.836;4.430;2024-03-17T12:01:36;7.88;;;2.10;;
27979;SDS011;15315;50.836;4.430;2024-03-17T12:11:36;7.00;;;1.73;;
27979;SDS011;15315;50.836;4.430;2024-03-17T12:21:37;5.13;;;1.50;;
27979;SDS011;15315;50.836;4.430;2024-03-17T12:31:37;6.45;;;1.85;;
27979;SDS011;15315;50.836;4.430;2024-03-17T12:41:38;5.85;;;1.88;;
27979;SDS011;15315;50.836;4.430;2024-03-17T12:51:38;8.73;;;1.77;;
27979;SDS011;15315;50.836;4.430;2024-03-17T13:01:40;7.45;;;1.67;;
27979;SDS011;15315;50.836;4.430;2024-03-17T13:11:40;6.65;;;2.10;;
27979;SDS011;15315;50.836;4.430;2024-03-17T13:21:41;5.40;;;1.77;;
27979;SDS011;15315;50.836;4.430;2024-03-17T13:31:41;7.47;;;2.00;;
27979;SDS011;15315;50.836;4.430;2024-03-17T13:41:41;4.72;;;1.63;;
27979;SDS011;15315;50.836;4.430;2024-03-17T13:51:42;7.72;;;2.10;;
27979;SDS011;15315;50.836;4.430;2024-03-17T14:01:45;8.98;;;2.10;;
27979;SDS011;15315;50.836;4.430;2024-03-17T14:11:46;7.53;;;1.67;;
27979;SDS011;15315;50.836;4.430;2024-03-17T14:21:47;4.18;;;2.10;;
27979;SDS011;15315;50.836;4.430;2024-03-17T14:31:47;5.43;;;1.40;;
27979;SDS011;15315;50.836;4.430;2024-03-17T14:41:48;6.15;;;1.58;;
27979;SDS011;15315;50.836;4.430;2024-03-17T14:51:50;6.65;;;1.58;;
27979;SDS011;15315;50.836;4.430;2024-03-17T15:01:50;5.15;;;1.50;;
27979;SDS011;15315;50.836;4.430;2024-03-17T15:11:51;4.75;;;1.60;;
27979;SDS011;15315;50.836;4.430;2024-03-17T15:21:51;5.22;;;1.60;;
27979;SDS011;15315;50.836;4.430;2024-03-17T15:31:52;4.25;;;1.55;;
27979;SDS011;15315;50.836;4.430;2024-03-17T15:41:53;5.88;;;2.10;;
27979;SDS011;15315;50.836;4.430;2024-03-17T15:51:53;10.10;;;1.85;;
27979;SDS011;15315;50.836;4.430;2024-03-17T16:01:54;5.93;;;1.85;;
27979;SDS011;15315;50.836;4.430;2024-03-17T16:11:55;5.40;;;1.65;;
27979;SDS011;15315;50.836;4.430;2024-03-17T16:21:56;8.32;;;1.90;;
27979;SDS011;15315;50.836;4.430;2024-03-17T16:31:57;6.30;;;2.03;;
27979;SDS011;15315;50.836;4.430;2024-03-17T16:41:58;8.90;;;2.22;;
27979;SDS011;15315;50.836;4.430;2024-03-17T16:51:59;4.35;;;1.67;;
27979;SDS011;15315;50.836;4.430;2024-03-17T17:01:59;7.15;;;2.20;;
27979;SDS011;15315;50.836;4.430;2024-03-17T17:11:59;13.18;;;2.05;;
27979;SDS011;15315;50.836;4.430;2024-03-17T17:22:00;4.65;;;1.67;;
27979;SDS011;15315;50.836;4.430;2024-03-17T17:32:02;9.07;;;2.60;;
27979;SDS011;15315;50.836;4.430;2024-03-17T17:42:09;8.32;;;2.38;;
27979;SDS011;15315;50.836;4.430;2024-03-17T17:52:10;6.57;;;2.10;;
27979;SDS011;15315;50.836;4.430;2024-03-17T18:02:10;12.30;;;2.20;;
27979;SDS011;15315;50.836;4.430;2024-03-17T18:12:11;10.05;;;2.83;;
27979;SDS011;15315;50.836;4.430;2024-03-17T18:22:12;11.77;;;3.47;;
27979;SDS011;15315;50.836;4.430;2024-03-17T18:32:12;8.77;;;4.47;;
27979;SDS011;15315;50.836;4.430;2024-03-17T18:42:13;6.93;;;3.42;;
27979;SDS011;15315;50.836;4.430;2024-03-17T18:52:14;4.78;;;3.60;;
27979;SDS011;15315;50.836;4.430;2024-03-17T19:02:15;9.07;;;3.70;;
27979;SDS011;15315;50.836;4.430;2024-03-17T19:12:15;7.68;;;3.90;;
27979;SDS011;15315;50.836;4.430;2024-03-17T19:22:16;7.88;;;3.80;;
27979;SDS011;15315;50.836;4.430;2024-03-17T19:32:16;5.72;;;4.25;;
27979;SDS011;15315;50.836;4.430;2024-03-17T19:42:17;7.30;;;5.55;;
27979;SDS011;15315;50.836;4.430;2024-03-17T19:52:18;6.72;;;5.03;;
27979;SDS011;15315;50.836;4.430;2024-03-17T20:02:18;9.57;;;5.72;;
27979;SDS011;15315;50.836;4.430;2024-03-17T20:12:18;10.68;;;5.68;;
27979;SDS011;15315;50.836;4.430;2024-03-17T20:22:20;7.05;;;6.22;;
27979;SDS011;15315;50.836;4.430;2024-03-17T20:32:20;9.98;;;7.25;;
27979;SDS011;15315;50.836;4.430;2024-03-17T20:42:21;10.57;;;8.05;;
27979;SDS011;15315;50.836;4.430;2024-03-17T20:52:21;12.48;;;9.75;;
27979;SDS011;15315;50.836;4.430;2024-03-17T21:02:22;15.27;;;10.52;;
27979;SDS011;15315;50.836;4.430;2024-03-17T21:12:23;13.60;;;8.30;;
27979;SDS011;15315;50.836;4.430;2024-03-17T21:22:25;15.45;;;9.55;;
27979;SDS011;15315;50.836;4.430;2024-03-17T21:32:25;10.52;;;8.35;;
27979;SDS011;15315;50.836;4.430;2024-03-17T21:42:28;16.30;;;10.93;;
27979;SDS011;15315;50.836;4.430;2024-03-17T21:52:28;14.93;;;11.35;;
27979;SDS011;15315;50.836;4.430;2024-03-17T22:02:28;19.77;;;13.07;;
27979;SDS011;15315;50.836;4.430;2024-03-17T22:12:29;18.65;;;13.30;;
27979;SDS011;15315;50.836;4.430;2024-03-17T22:22:29;21.45;;;12.98;;
27979;SDS011;15315;50.836;4.430;2024-03-17T22:32:29;20.88;;;14.00;;
27979;SDS011;15315;50.836;4.430;2024-03-17T22:42:30;22.17;;;15.10;;
27979;SDS011;15315;50.836;4.430;2024-03-17T22:52:31;21.73;;;15.30;;
27979;SDS011;15315;50.836;4.430;2024-03-17T23:02:31;24.55;;;18.02;;
27979;SDS011;15315;50.836;4.430;2024-03-17T23:12:31;23.48;;;17.23;;
27979;SDS011;15315;50.836;4.430;2024-03-17T23:22:32;23.67;;;17.50;;
27979;SDS011;15315;50.836;4.430;2024-03-17T23:32:32;32.53;;;20.95;;
27979;SDS011;15315;50.836;4.430;2024-03-17T23:42:32;26.77;;;19.48;;
27979;SDS011;15315;50.836;4.430;2024-03-17T23:52:34;29.25;;;20.42;;
